sensor_id;sensor_type;location;lat;lon;timestamp;pressure;altitude;pressure_sealevel;temperature;humidity
52735;BME280;38631;47.572;10.704;2023-05-24T00:01:14;92682.59;;;12.20;100.00
52735;BME280;38631;47.572;10.704;2023-05-24T00:03:41;92679.59;;;12.21;100.00
52735;BME280;38631;47.572;10.704;2023-05-24T00:06:06;92672.72;;;12.12;100.00
52735;BME280;38631;47.572;10.704;2023-05-24T00:08:32;92678.03;;;12.20;100.00
52735;BME280;38631;47.572;10.704;2023-05-24T00:10:58;92681.66;;;12.24;100.00
52735;BME280;38631;47.572;10.704;2023-05-24T00:13:24;92679.13;;;12.28;100.00
52735;BME280;38631;47.572;10.704;2023-05-24T00:15:49;92673.19;;;12.31;100.00
52735;BME280;38631;47.572;10.704;2023-05-24T00:18:15;92672.56;;;12.25;100.00
52735;BME280;38631;47.572;10.704;2023-05-24T00:20:42;92670.06;;;12.29;100.00
52735;BME280;38631;47.572;10.704;2023-05-24T00:23:07;92667.41;;;12.29;100.00
52735;BME280;38631;47.572;10.704;2023-05-24T00:25:33;92672.75;;;12.29;100.00
52735;BME280;38631;47.572;10.704;2023-05-24T00:27:59;92677.13;;;12.42;100.00
52735;BME280;38631;47.572;10.704;2023-05-24T00:30:24;92680.09;;;12.41;100.00
52735;BME280;38631;47.572;10.704;2023-05-24T00:32:50;92669.28;;;12.28;100.00
52735;BME280;38631;47.572;10.704;2023-05-24T00:35:15;92663.63;;;12.21;100.00
52735;BME280;38631;47.572;10.704;2023-05-24T00:37:40;92659.69;;;12.19;100.00
52735;BME280;38631;47.572;10.704;2023-05-24T00:40:09;92664.53;;;12.08;100.00
52735;BME280;38631;47.572;10.704;2023-05-24T00:42:35;92652.50;;;12.02;100.00
52735;BME280;38631;47.572;10.704;2023-05-24T00:45:00;92652.00;;;12.08;100.00
52735;BME280;38631;47.572;10.704;2023-05-24T00:47:25;92656.88;;;12.15;100.00
52735;BME280;38631;47.572;10.704;2023-05-24T00:49:51;92652.53;;;12.19;100.00
52735;BME280;38631;47.572;10.704;2023-05-24T00:52:16;92652.78;;;11.92;100.00
52735;BME280;38631;47.572;10.704;2023-05-24T00:54:42;92657.94;;;11.88;100.00
52735;BME280;38631;47.572;10.704;2023-05-24T00:57:08;92646.91;;;11.81;100.00
52735;BME280;38631;47.572;10.704;2023-05-24T00:59:33;92653.78;;;11.73;100.00
52735;BME280;38631;47.572;10.704;2023-05-24T01:01:59;92659.44;;;11.72;100.00
52735;BME280;38631;47.572;10.704;2023-05-24T01:04:24;92656.78;;;11.72;100.00
52735;BME280;38631;47.572;10.704;2023-05-24T01:12:58;92657.09;;;11.79;100.00
52735;BME280;38631;47.572;10.704;2023-05-24T01:15:27;92655.38;;;11.74;100.00
52735;BME280;38631;47.572;10.704;2023-05-24T01:18:01;92648.25;;;11.61;100.00
52735;BME280;38631;47.572;10.704;2023-05-24T01:20:32;92650.59;;;11.54;100.00
52735;BME280;38631;47.572;10.704;2023-05-24T01:25:44;92658.25;;;11.55;100.00
52735;BME280;38631;47.572;10.704;2023-05-24T01:28:11;92650.47;;;11.59;100.00
52735;BME280;38631;47.572;10.704;2023-05-24T01:30:39;92643.72;;;11.53;100.00
52735;BME280;38631;47.572;10.704;2023-05-24T01:33:04;92642.00;;;11.57;100.00
52735;BME280;38631;47.572;10.704;2023-05-24T01:35:30;92646.22;;;11.49;100.00
52735;BME280;38631;47.572;10.704;2023-05-24T01:37:55;92644.13;;;11.46;100.00
52735;BME280;38631;47.572;10.704;2023-05-24T01:40:20;92644.34;;;11.58;100.00
52735;BME280;38631;47.572;10.704;2023-05-24T01:43:39;92642.78;;;11.49;100.00
52735;BME280;38631;47.572;10.704;2023-05-24T01:46:12;92639.16;;;11.53;100.00
52735;BME280;38631;47.572;10.704;2023-05-24T01:49:02;92639.63;;;11.46;100.00
52735;BME280;38631;47.572;10.704;2023-05-24T01:51:33;92638.59;;;11.25;100.00
52735;BME280;38631;47.572;10.704;2023-05-24T01:54:00;92637.09;;;11.41;100.00
52735;BME280;38631;47.572;10.704;2023-05-24T01:56:28;92634.25;;;11.29;100.00
52735;BME280;38631;47.572;10.704;2023-05-24T01:58:55;92635.84;;;11.39;100.00
52735;BME280;38631;47.572;10.704;2023-05-24T02:01:22;92644.56;;;11.31;100.00
52735;BME280;38631;47.572;10.704;2023-05-24T02:03:49;92645.44;;;11.17;100.00
52735;BME280;38631;47.572;10.704;2023-05-24T02:06:15;92642.94;;;11.21;100.00
52735;BME280;38631;47.572;10.704;2023-05-24T02:08:40;92648.31;;;11.30;100.00
52735;BME280;38631;47.572;10.704;2023-05-24T02:11:05;92642.69;;;11.31;100.00
52735;BME280;38631;47.572;10.704;2023-05-24T02:13:31;92636.19;;;11.15;100.00
52735;BME280;38631;47.572;10.704;2023-05-24T02:15:56;92644.66;;;11.17;100.00
52735;BME280;38631;47.572;10.704;2023-05-24T02:18:21;92635.44;;;11.23;100.00
52735;BME280;38631;47.572;10.704;2023-05-24T02:20:47;92643.19;;;11.42;100.00
52735;BME280;38631;47.572;10.704;2023-05-24T02:23:12;92638.09;;;11.23;100.00
52735;BME280;38631;47.572;10.704;2023-05-24T02:25:38;92630.47;;;11.21;100.00
52735;BME280;38631;47.572;10.704;2023-05-24T02:28:04;92645.31;;;11.22;100.00
52735;BME280;38631;47.572;10.704;2023-05-24T02:30:29;92642.78;;;11.17;100.00
52735;BME280;38631;47.572;10.704;2023-05-24T02:32:54;92644.38;;;11.27;100.00
52735;BME280;38631;47.572;10.704;2023-05-24T02:35:20;92632.50;;;11.24;100.00
52735;BME280;38631;47.572;10.704;2023-05-24T02:37:46;92645.00;;;11.24;100.00
52735;BME280;38631;47.572;10.704;2023-05-24T02:40:13;92633.03;;;11.04;100.00
52735;BME280;38631;47.572;10.704;2023-05-24T02:42:38;92636.59;;;10.99;100.00
52735;BME280;38631;47.572;10.704;2023-05-24T02:45:04;92636.81;;;11.12;100.00
52735;BME280;38631;47.572;10.704;2023-05-24T02:47:29;92635.81;;;10.99;100.00
52735;BME280;38631;47.572;10.704;2023-05-24T02:49:55;92636.81;;;11.12;100.00
52735;BME280;38631;47.572;10.704;2023-05-24T02:52:20;92626.81;;;11.09;100.00
52735;BME280;38631;47.572;10.704;2023-05-24T02:54:48;92620.41;;;11.18;100.00
52735;BME280;38631;47.572;10.704;2023-05-24T02:57:13;92616.75;;;11.06;100.00
52735;BME280;38631;47.572;10.704;2023-05-24T02:59:39;92627.66;;;11.27;100.00
52735;BME280;38631;47.572;10.704;2023-05-24T03:02:04;92619.56;;;11.00;100.00
52735;BME280;38631;47.572;10.704;2023-05-24T03:04:29;92616.47;;;11.07;100.00
52735;BME280;38631;47.572;10.704;2023-05-24T03:06:55;92619.94;;;10.85;100.00
52735;BME280;38631;47.572;10.704;2023-05-24T03:09:20;92623.19;;;11.05;100.00
52735;BME280;38631;47.572;10.704;2023-05-24T03:11:46;92622.03;;;11.28;100.00
52735;BME280;38631;47.572;10.704;2023-05-24T03:14:11;92615.63;;;10.98;100.00
52735;BME280;38631;47.572;10.704;2023-05-24T03:16:36;92614.44;;;11.13;100.00
52735;BME280;38631;47.572;10.704;2023-05-24T03:19:02;92617.81;;;10.96;100.00
52735;BME280;38631;47.572;10.704;2023-05-24T03:21:28;92613.66;;;11.03;100.00
52735;BME280;38631;47.572;10.704;2023-05-24T03:23:53;92609.41;;;11.02;100.00
52735;BME280;38631;47.572;10.704;2023-05-24T03:26:19;92614.22;;;11.00;100.00
52735;BME280;38631;47.572;10.704;2023-05-24T03:28:45;92612.69;;;10.99;100.00
52735;BME280;38631;47.572;10.704;2023-05-24T03:31:12;92615.28;;;10.91;100.00
52735;BME280;38631;47.572;10.704;2023-05-24T03:33:37;92620.06;;;10.80;100.00
52735;BME280;38631;47.572;10.704;2023-05-24T03:36:03;92625.59;;;10.92;100.00
52735;BME280;38631;47.572;10.704;2023-05-24T03:38:30;92622.56;;;11.08;100.00
52735;BME280;38631;47.572;10.704;2023-05-24T03:40:58;92623.84;;;10.88;100.00
52735;BME280;38631;47.572;10.704;2023-05-24T03:43:23;92627.22;;;11.02;100.00
52735;BME280;38631;47.572;10.704;2023-05-24T03:45:50;92631.97;;;11.14;100.00
52735;BME280;38631;47.572;10.704;2023-05-24T03:48:15;92629.59;;;11.03;100.00
52735;BME280;38631;47.572;10.704;2023-05-24T03:50:41;92636.41;;;10.96;100.00
52735;BME280;38631;47.572;10.704;2023-05-24T03:53:06;92639.78;;;11.10;100.00
52735;BME280;38631;47.572;10.704;2023-05-24T03:55:31;92629.91;;;11.11;100.00
52735;BME280;38631;47.572;10.704;2023-05-24T03:57:57;92645.69;;;11.07;100.00
52735;BME280;38631;47.572;10.704;2023-05-24T04:00:22;92646.00;;;11.06;100.00
52735;BME280;38631;47.572;10.704;2023-05-24T04:02:47;92640.50;;;11.02;100.00
52735;BME280;38631;47.572;10.704;2023-05-24T04:05:13;92646.66;;;11.11;100.00
52735;BME280;38631;47.572;10.704;2023-05-24T04:07:39;92652.69;;;11.03;100.00
52735;BME280;38631;47.572;10.704;2023-05-24T04:10:05;92652.56;;;11.08;100.00
52735;BME280;38631;47.572;10.704;2023-05-24T04:12:32;92653.84;;;11.11;100.00
52735;BME280;38631;47.572;10.704;2023-05-24T04:15:00;92653.19;;;11.05;100.00
52735;BME280;38631;47.572;10.704;2023-05-24T04:17:26;92647.97;;;10.91;100.00
52735;BME280;38631;47.572;10.704;2023-05-24T04:19:53;92644.22;;;10.92;100.00
52735;BME280;38631;47.572;10.704;2023-05-24T04:22:19;92650.25;;;10.62;100.00
52735;BME280;38631;47.572;10.704;2023-05-24T04:24:44;92650.19;;;10.75;100.00
52735;BME280;38631;47.572;10.704;2023-05-24T04:27:10;92653.28;;;10.69;100.00
52735;BME280;38631;47.572;10.704;2023-05-24T04:29:37;92656.34;;;10.62;100.00
52735;BME280;38631;47.572;10.704;2023-05-24T04:32:04;92649.28;;;10.57;100.00
52735;BME280;38631;47.572;10.704;2023-05-24T04:34:30;92649.91;;;10.77;100.00
52735;BME280;38631;47.572;10.704;2023-05-24T04:36:58;92647.59;;;10.84;100.00
52735;BME280;38631;47.572;10.704;2023-05-24T04:39:24;92652.31;;;10.87;100.00
52735;BME280;38631;47.572;10.704;2023-05-24T04:41:49;92647.59;;;10.84;100.00
52735;BME280;38631;47.572;10.704;2023-05-24T04:44:18;92640.13;;;10.86;100.00
52735;BME280;38631;47.572;10.704;2023-05-24T04:46:43;92647.63;;;10.93;100.00
52735;BME280;38631;47.572;10.704;2023-05-24T04:49:09;92652.34;;;10.96;100.00
52735;BME280;38631;47.572;10.704;2023-05-24T04:51:34;92647.03;;;10.96;100.00
52735;BME280;38631;47.572;10.704;2023-05-24T04:54:03;92651.88;;;10.94;100.00
52735;BME280;38631;47.572;10.704;2023-05-24T04:56:35;92649.81;;;10.91;100.00
52735;BME280;38631;47.572;10.704;2023-05-24T04:59:08;92646.81;;;10.84;100.00
52735;BME280;38631;47.572;10.704;2023-05-24T05:01:35;92651.28;;;10.74;100.00
52735;BME280;38631;47.572;10.704;2023-05-24T05:04:02;92656.34;;;10.85;100.00
52735;BME280;38631;47.572;10.704;2023-05-24T05:06:28;92654.47;;;10.85;100.00
52735;BME280;38631;47.572;10.704;2023-05-24T05:08:54;92654.59;;;10.80;100.00
52735;BME280;38631;47.572;10.704;2023-05-24T05:11:19;92647.41;;;10.80;100.00
52735;BME280;38631;47.572;10.704;2023-05-24T05:13:45;92644.28;;;10.78;100.00
52735;BME280;38631;47.572;10.704;2023-05-24T05:16:11;92645.00;;;10.70;100.00
52735;BME280;38631;47.572;10.704;2023-05-24T05:18:37;92638.41;;;10.68;100.00
52735;BME280;38631;47.572;10.704;2023-05-24T05:21:02;92643.44;;;10.69;100.00
52735;BME280;38631;47.572;10.704;2023-05-24T05:23:29;92636.44;;;10.73;100.00
52735;BME280;38631;47.572;10.704;2023-05-24T05:25:54;92640.00;;;10.69;100.00
52735;BME280;38631;47.572;10.704;2023-05-24T05:28:20;92632.03;;;10.46;100.00
52735;BME280;38631;47.572;10.704;2023-05-24T05:30:45;92635.28;;;10.66;100.00
52735;BME280;38631;47.572;10.704;2023-05-24T05:33:11;92637.81;;;10.71;100.00
52735;BME280;38631;47.572;10.704;2023-05-24T05:35:36;92641.94;;;10.77;100.00
52735;BME280;38631;47.572;10.704;2023-05-24T05:38:01;92643.84;;;10.63;100.00
52735;BME280;38631;47.572;10.704;2023-05-24T05:40:27;92641.50;;;10.84;100.00
52735;BME280;38631;47.572;10.704;2023-05-24T05:42:52;92640.69;;;10.83;100.00
52735;BME280;38631;47.572;10.704;2023-05-24T05:45:17;92644.22;;;10.70;100.00
52735;BME280;38631;47.572;10.704;2023-05-24T05:47:43;92644.34;;;10.65;100.00
52735;BME280;38631;47.572;10.704;2023-05-24T05:50:09;92651.28;;;10.74;100.00
52735;BME280;38631;47.572;10.704;2023-05-24T05:52:35;92647.16;;;10.91;100.00
52735;BME280;38631;47.572;10.704;2023-05-24T05:55:00;92643.31;;;10.74;100.00
52735;BME280;38631;47.572;10.704;2023-05-24T05:57:25;92645.31;;;10.69;100.00
52735;BME280;38631;47.572;10.704;2023-05-24T05:59:51;92639.69;;;10.70;100.00
52735;BME280;38631;47.572;10.704;2023-05-24T06:02:16;92633.19;;;10.54;100.00
52735;BME280;38631;47.572;10.704;2023-05-24T06:04:46;92648.34;;;10.53;100.00
52735;BME280;38631;47.572;10.704;2023-05-24T06:07:12;92634.56;;;10.74;100.00
52735;BME280;38631;47.572;10.704;2023-05-24T06:09:37;92634.09;;;10.72;100.00
52735;BME280;38631;47.572;10.704;2023-05-24T06:12:03;92628.28;;;10.70;100.00
52735;BME280;38631;47.572;10.704;2023-05-24T06:14:28;92631.03;;;10.56;100.00
52735;BME280;38631;47.572;10.704;2023-05-24T06:16:54;92626.97;;;10.36;100.00
52735;BME280;38631;47.572;10.704;2023-05-24T06:19:20;92633.22;;;10.40;100.00
52735;BME280;38631;47.572;10.704;2023-05-24T06:21:48;92636.59;;;10.32;100.00
52735;BME280;38631;47.572;10.704;2023-05-24T06:24:15;92636.78;;;10.35;100.00
52735;BME280;38631;47.572;10.704;2023-05-24T06:26:44;92637.75;;;10.40;100.00
52735;BME280;38631;47.572;10.704;2023-05-24T06:29:10;92633.97;;;10.54;100.00
52735;BME280;38631;47.572;10.704;2023-05-24T06:31:35;92634.22;;;10.44;100.00
52735;BME280;38631;47.572;10.704;2023-05-24T06:34:01;92633.72;;;10.65;100.00
52735;BME280;38631;47.572;10.704;2023-05-24T06:36:26;92640.66;;;10.52;100.00
52735;BME280;38631;47.572;10.704;2023-05-24T06:38:51;92644.88;;;10.53;100.00
52735;BME280;38631;47.572;10.704;2023-05-24T06:41:17;92637.72;;;10.53;100.00
52735;BME280;38631;47.572;10.704;2023-05-24T06:43:42;92648.81;;;10.55;100.00
52735;BME280;38631;47.572;10.704;2023-05-24T06:46:08;92642.34;;;10.48;100.00
52735;BME280;38631;47.572;10.704;2023-05-24T06:48:33;92649.53;;;10.47;100.00
52735;BME280;38631;47.572;10.704;2023-05-24T06:50:59;92651.41;;;10.47;100.00
52735;BME280;38631;47.572;10.704;2023-05-24T06:53:24;92650.06;;;10.58;100.00
52735;BME280;38631;47.572;10.704;2023-05-24T06:55:50;92647.34;;;10.49;100.00
52735;BME280;38631;47.572;10.704;2023-05-24T06:58:15;92650.88;;;10.58;100.00
52735;BME280;38631;47.572;10.704;2023-05-24T07:00:41;92658.72;;;10.64;100.00
52735;BME280;38631;47.572;10.704;2023-05-24T07:03:08;92656.66;;;10.60;100.00
52735;BME280;38631;47.572;10.704;2023-05-24T07:05:33;92656.75;;;10.55;100.00
52735;BME280;38631;47.572;10.704;2023-05-24T07:07:59;92653.78;;;10.48;100.00
52735;BME280;38631;47.572;10.704;2023-05-24T07:10:25;92659.13;;;10.57;100.00
52735;BME280;38631;47.572;10.704;2023-05-24T07:12:50;92657.00;;;10.45;100.00
52735;BME280;38631;47.572;10.704;2023-05-24T07:15:16;92666.06;;;10.44;100.00
52735;BME280;38631;47.572;10.704;2023-05-24T07:17:42;92657.38;;;10.52;100.00
52735;BME280;38631;47.572;10.704;2023-05-24T07:20:08;92673.41;;;10.47;100.00
52735;BME280;38631;47.572;10.704;2023-05-24T07:22:38;92685.72;;;10.43;100.00
52735;BME280;38631;47.572;10.704;2023-05-24T07:25:03;92676.91;;;10.34;100.00
52735;BME280;38631;47.572;10.704;2023-05-24T07:27:32;92690.25;;;10.43;100.00
52735;BME280;38631;47.572;10.704;2023-05-24T07:29:57;92681.72;;;10.32;100.00
52735;BME280;38631;47.572;10.704;2023-05-24T07:32:23;92688.72;;;10.28;100.00
52735;BME280;38631;47.572;10.704;2023-05-24T07:34:48;92686.63;;;10.25;100.00
52735;BME280;38631;47.572;10.704;2023-05-24T07:37:14;92687.53;;;10.34;100.00
52735;BME280;38631;47.572;10.704;2023-05-24T07:39:40;92699.31;;;10.28;100.00
52735;BME280;38631;47.572;10.704;2023-05-24T07:42:06;92692.06;;;10.33;100.00
52735;BME280;38631;47.572;10.704;2023-05-24T07:44:31;92686.34;;;10.26;100.00
52735;BME280;38631;47.572;10.704;2023-05-24T07:46:57;92701.09;;;10.32;100.00
52735;BME280;38631;47.572;10.704;2023-05-24T07:49:22;92695.78;;;10.32;100.00
52735;BME280;38631;47.572;10.704;2023-05-24T07:51:48;92696.75;;;10.23;100.00
52735;BME280;38631;47.572;10.704;2023-05-24T07:54:13;92691.84;;;10.30;100.00
52735;BME280;38631;47.572;10.704;2023-05-24T07:56:42;92693.44;;;10.17;100.00
52735;BME280;38631;47.572;10.704;2023-05-24T07:59:08;92698.91;;;10.21;100.00
52735;BME280;38631;47.572;10.704;2023-05-24T08:01:34;92696.97;;;10.12;100.00
52735;BME280;38631;47.572;10.704;2023-05-24T08:04:00;92691.16;;;10.10;100.00
52735;BME280;38631;47.572;10.704;2023-05-24T08:06:28;92698.34;;;10.10;100.00
52735;BME280;38631;47.572;10.704;2023-05-24T08:08:53;92698.56;;;10.13;100.00
52735;BME280;38631;47.572;10.704;2023-05-24T08:11:18;92703.38;;;10.11;100.00
52735;BME280;38631;47.572;10.704;2023-05-24T08:13:44;92696.06;;;10.17;100.00
52735;BME280;38631;47.572;10.704;2023-05-24T08:16:10;92704.13;;;10.26;100.00
52735;BME280;38631;47.572;10.704;2023-05-24T08:18:35;92700.28;;;10.18;100.00
52735;BME280;38631;47.572;10.704;2023-05-24T08:21:00;92709.34;;;10.17;100.00
52735;BME280;38631;47.572;10.704;2023-05-24T08:23:26;92691.25;;;10.19;100.00
52735;BME280;38631;47.572;10.704;2023-05-24T08:25:55;92688.72;;;10.28;100.00
52735;BME280;38631;47.572;10.704;2023-05-24T08:28:20;92692.53;;;10.35;100.00
52735;BME280;38631;47.572;10.704;2023-05-24T08:30:46;92691.84;;;10.30;100.00
52735;BME280;38631;47.572;10.704;2023-05-24T08:33:11;92701.34;;;10.45;100.00
52735;BME280;38631;47.572;10.704;2023-05-24T08:35:37;92697.88;;;10.58;100.00
52735;BME280;38631;47.572;10.704;2023-05-24T08:38:02;92697.03;;;10.49;100.00
52735;BME280;38631;47.572;10.704;2023-05-24T08:40:27;92697.72;;;10.41;100.00
52735;BME280;38631;47.572;10.704;2023-05-24T08:42:54;92693.88;;;10.47;100.00
52735;BME280;38631;47.572;10.704;2023-05-24T08:45:25;92703.13;;;10.49;100.00
52735;BME280;38631;47.572;10.704;2023-05-24T08:47:50;92701.28;;;10.36;100.00
52735;BME280;38631;47.572;10.704;2023-05-24T08:50:16;92707.50;;;10.31;100.00
52735;BME280;38631;47.572;10.704;2023-05-24T08:52:43;92711.97;;;10.45;100.00
52735;BME280;38631;47.572;10.704;2023-05-24T08:55:10;92720.34;;;10.38;100.00
52735;BME280;38631;47.572;10.704;2023-05-24T08:57:36;92714.41;;;10.55;100.00
52735;BME280;38631;47.572;10.704;2023-05-24T09:00:13;92716.88;;;10.51;100.00
52735;BME280;38631;47.572;10.704;2023-05-24T09:02:39;92718.81;;;10.59;100.00
52735;BME280;38631;47.572;10.704;2023-05-24T09:05:10;92727.88;;;10.58;100.00
52735;BME280;38631;47.572;10.704;2023-05-24T09:07:36;92722.69;;;10.53;100.00
52735;BME280;38631;47.572;10.704;2023-05-24T09:10:04;92736.47;;;10.42;100.00
52735;BME280;38631;47.572;10.704;2023-05-24T09:12:31;92729.56;;;10.54;100.00
52735;BME280;38631;47.572;10.704;2023-05-24T09:14:57;92732.25;;;10.63;100.00
52735;BME280;38631;47.572;10.704;2023-05-24T09:17:23;92738.78;;;10.57;100.00
52735;BME280;38631;47.572;10.704;2023-05-24T09:19:49;92731.09;;;10.69;100.00
52735;BME280;38631;47.572;10.704;2023-05-24T09:22:16;92735.88;;;10.81;100.00
52735;BME280;38631;47.572;10.704;2023-05-24T09:24:48;92735.63;;;10.69;100.00
52735;BME280;38631;47.572;10.704;2023-05-24T09:27:14;92740.66;;;10.56;100.00
52735;BME280;38631;47.572;10.704;2023-05-24T09:29:41;92740.72;;;10.65;100.00
52735;BME280;38631;47.572;10.704;2023-05-24T09:32:07;92746.34;;;10.64;100.00
52735;BME280;38631;47.572;10.704;2023-05-24T09:34:38;92746.47;;;10.58;100.00
52735;BME280;38631;47.572;10.704;2023-05-24T09:37:04;92752.44;;;10.64;100.00
52735;BME280;38631;47.572;10.704;2023-05-24T09:39:29;92749.19;;;10.67;100.00
52735;BME280;38631;47.572;10.704;2023-05-24T09:41:56;92744.88;;;10.57;100.00
52735;BME280;38631;47.572;10.704;2023-05-24T09:44:25;92742.81;;;10.54;100.00
52735;BME280;38631;47.572;10.704;2023-05-24T09:47:00;92754.44;;;10.45;100.00
52735;BME280;38631;47.572;10.704;2023-05-24T09:49:29;92751.88;;;10.53;100.00
52735;BME280;38631;47.572;10.704;2023-05-24T09:51:55;92744.66;;;10.68;100.00
52735;BME280;38631;47.572;10.704;2023-05-24T09:54:20;92752.56;;;10.45;100.00
52735;BME280;38631;47.572;10.704;2023-05-24T09:56:46;92752.25;;;10.60;100.00
52735;BME280;38631;47.572;10.704;2023-05-24T09:59:11;92745.97;;;10.56;100.00
52735;BME280;38631;47.572;10.704;2023-05-24T10:01:37;92748.53;;;10.62;100.00
52735;BME280;38631;47.572;10.704;2023-05-24T10:04:02;92741.09;;;10.36;100.00
52735;BME280;38631;47.572;10.704;2023-05-24T10:06:32;92747.19;;;10.36;100.00
52735;BME280;38631;47.572;10.704;2023-05-24T10:09:02;92749.63;;;10.47;100.00
52735;BME280;38631;47.572;10.704;2023-05-24T10:11:34;92748.53;;;10.48;100.00
52735;BME280;38631;47.572;10.704;2023-05-24T10:14:03;92743.72;;;10.50;100.00
52735;BME280;38631;47.572;10.704;2023-05-24T10:16:30;92742.81;;;10.54;100.00
52735;BME280;38631;47.572;10.704;2023-05-24T10:18:55;92742.81;;;10.54;100.00
52735;BME280;38631;47.572;10.704;2023-05-24T10:21:22;92743.81;;;10.58;100.00
52735;BME280;38631;47.572;10.704;2023-05-24T10:23:51;92747.66;;;10.52;100.00
52735;BME280;38631;47.572;10.704;2023-05-24T10:26:20;92738.28;;;10.55;100.00
52735;BME280;38631;47.572;10.704;2023-05-24T10:28:49;92748.91;;;10.55;100.00
52735;BME280;38631;47.572;10.704;2023-05-24T10:31:23;92749.44;;;10.43;100.00
52735;BME280;38631;47.572;10.704;2023-05-24T10:33:51;92747.91;;;10.28;100.00
52735;BME280;38631;47.572;10.704;2023-05-24T10:36:17;92745.25;;;10.28;100.00
52735;BME280;38631;47.572;10.704;2023-05-24T10:38:45;92743.38;;;10.29;100.00
52735;BME280;38631;47.572;10.704;2023-05-24T10:41:11;92747.50;;;10.21;100.00
52735;BME280;38631;47.572;10.704;2023-05-24T10:43:37;92750.44;;;10.20;100.00
52735;BME280;38631;47.572;10.704;2023-05-24T10:46:03;92756.44;;;10.11;100.00
52735;BME280;38631;47.572;10.704;2023-05-24T10:50:55;92734.31;;;10.30;100.00
52735;BME280;38631;47.572;10.704;2023-05-24T10:53:21;92740.91;;;10.19;100.00
52735;BME280;38631;47.572;10.704;2023-05-24T10:55:57;92746.28;;;10.27;100.00
52735;BME280;38631;47.572;10.704;2023-05-24T11:01:30;92735.38;;;10.15;100.00
52735;BME280;38631;47.572;10.704;2023-05-24T11:04:15;92751.41;;;10.24;100.00
52735;BME280;38631;47.572;10.704;2023-05-24T11:06:48;92752.69;;;10.26;100.00
52735;BME280;38631;47.572;10.704;2023-05-24T11:09:17;92754.28;;;10.13;100.00
52735;BME280;38631;47.572;10.704;2023-05-24T11:11:45;92744.63;;;9.90;100.00
52735;BME280;38631;47.572;10.704;2023-05-24T11:14:12;92748.47;;;9.98;100.00
52735;BME280;38631;47.572;10.704;2023-05-24T11:16:39;92759.38;;;10.10;100.00
52735;BME280;38631;47.572;10.704;2023-05-24T11:19:37;92763.22;;;10.31;100.00
52735;BME280;38631;47.572;10.704;2023-05-24T11:22:05;92756.63;;;10.15;100.00
52735;BME280;38631;47.572;10.704;2023-05-24T11:24:32;92754.38;;;10.08;100.00
52735;BME280;38631;47.572;10.704;2023-05-24T11:26:58;92749.44;;;10.15;100.00
52735;BME280;38631;47.572;10.704;2023-05-24T11:29:24;92755.06;;;10.00;100.00
52735;BME280;38631;47.572;10.704;2023-05-24T11:31:57;92750.63;;;9.95;100.00
52735;BME280;38631;47.572;10.704;2023-05-24T11:34:26;92752.81;;;9.93;100.00
52735;BME280;38631;47.572;10.704;2023-05-24T11:36:52;92755.06;;;9.86;100.00
52735;BME280;38631;47.572;10.704;2023-05-24T11:39:19;92754.09;;;9.96;100.00
52735;BME280;38631;47.572;10.704;2023-05-24T11:41:46;92756.63;;;10.15;100.00
52735;BME280;38631;47.572;10.704;2023-05-24T11:44:16;92759.59;;;10.13;100.00
52735;BME280;38631;47.572;10.704;2023-05-24T11:46:44;92755.53;;;10.02;100.00
52735;BME280;38631;47.572;10.704;2023-05-24T11:49:14;92751.91;;;10.12;100.00
52735;BME280;38631;47.572;10.704;2023-05-24T11:51:40;92757.91;;;10.04;100.00
52735;BME280;38631;47.572;10.704;2023-05-24T11:54:06;92756.44;;;9.98;100.00
52735;BME280;38631;47.572;10.704;2023-05-24T11:56:31;92764.38;;;9.98;100.00
52735;BME280;38631;47.572;10.704;2023-05-24T11:59:16;92769.50;;;9.94;100.00
52735;BME280;38631;47.572;10.704;2023-05-24T12:01:42;92765.75;;;9.95;100.00
52735;BME280;38631;47.572;10.704;2023-05-24T12:04:08;92756.22;;;9.66;100.00
52735;BME280;38631;47.572;10.704;2023-05-24T12:06:39;92766.56;;;9.82;100.00
52735;BME280;38631;47.572;10.704;2023-05-24T12:09:05;92765.97;;;9.71;100.00
52735;BME280;38631;47.572;10.704;2023-05-24T12:11:41;92769.00;;;9.78;100.00
52735;BME280;38631;47.572;10.704;2023-05-24T12:14:11;92769.78;;;9.79;100.00
52735;BME280;38631;47.572;10.704;2023-05-24T12:16:37;92770.28;;;9.94;100.00
52735;BME280;38631;47.572;10.704;2023-05-24T12:19:03;92768.22;;;10.05;100.00
52735;BME280;38631;47.572;10.704;2023-05-24T12:21:31;92776.66;;;10.07;100.00
52735;BME280;38631;47.572;10.704;2023-05-24T12:24:17;92774.72;;;9.99;100.00
52735;BME280;38631;47.572;10.704;2023-05-24T12:26:46;92775.19;;;9.73;100.00
52735;BME280;38631;47.572;10.704;2023-05-24T12:29:12;92774.97;;;9.56;100.00
52735;BME280;38631;47.572;10.704;2023-05-24T12:31:43;92773.31;;;9.74;100.00
52735;BME280;38631;47.572;10.704;2023-05-24T12:34:12;92770.66;;;9.74;100.00
52735;BME280;38631;47.572;10.704;2023-05-24T12:36:38;92779.88;;;9.63;100.00
52735;BME280;38631;47.572;10.704;2023-05-24T12:39:19;92781.38;;;9.83;100.00
52735;BME280;38631;47.572;10.704;2023-05-24T12:41:50;92778.34;;;9.76;100.00
52735;BME280;38631;47.572;10.704;2023-05-24T12:44:16;92773.31;;;9.88;100.00
52735;BME280;38631;47.572;10.704;2023-05-24T12:46:41;92775.09;;;10.06;100.00
52735;BME280;38631;47.572;10.704;2023-05-24T12:49:08;92776.28;;;10.28;100.00
52735;BME280;38631;47.572;10.704;2023-05-24T12:51:34;92767.34;;;10.10;100.00
52735;BME280;38631;47.572;10.704;2023-05-24T12:54:00;92775.78;;;10.26;100.00